Impacts TAF Board
For situational awareness. Not to be used for flight planning purposes.
IDs:

KCVG - Cincinnati Intl, KY, US

Issued at 1136 UTC 05 Apr 2020
Updated at 1418 UTC 05 Apr 2020
Potential Impact None Slight Moderate High
Time1352Z 05/15Z 05/16Z 05/17Z 05/18Z 05/19Z 05/20Z 05/21Z 05/22Z 05/23Z 06/00Z 06/01Z 06/02Z 06/03Z>>
Type OBS PRVL PRVL PRVL PRVL PRVL PRVL PRVL PRVL PRVL PRVL PRVL PRVL PRVL
VIS 4 >6 >6 >6 >6 >6 >6 >6 >6 >6 >6 >6 >6 >6
CIG 5 50 50 50 35 35 35 35 40 40 40 40 40 40
Cover OVC OVC OVC OVC BKN BKN BKN BKN BKN BKN BKN BKN BKN BKN
FltCat IFR VFR VFR VFR VFR VFR VFR VFR VFR VFR VFR VFR VFR VFR
WX BR VCSH VCSH VCSH -- -- -- -- -- -- -- -- -- --
WDir 350 360 360 360 330 330 330 330 360 360 360 360 360 360
WSpd 6 4 4 4 5 5 5 5 5 5 5 5 5 5
WGst -- -- -- -- -- -- -- -- -- -- -- -- -- --
Raw TAF
KCVG 051136Z 0512/0618 34009KT P6SM -SHRA OVC007
  FM051300 36004KT P6SM VCSH SCT007 OVC050
  FM051800 33005KT P6SM BKN035
  FM052200 36005KT P6SM BKN040
  FM060800 04004KT 5SM BR BKN040
  FM061300 08003KT P6SM SCT050
  FM061600 14004KT P6SM SCT060


Raw METAR
KCVG 051352Z 35006KT 4SM BR BKN005 OVC006 09/08 A3009 RMK AO2 SLP187 T00940078
KCVG 051252Z 02008KT 4SM BR BKN005 BKN090 BKN130 10/08 A3007 RMK AO2 RAE22 SLP180 P0001 T01000078
KCVG 051152Z 03007KT 4SM -RA BR BKN005 BKN055 OVC085 09/07 A3006 RMK AO2 RAB1056 SLP175 P0008 60010 70010 T00890072 10122 20089 50014

METAR Board
Radar Display
Forecast Discussion
For situational awareness. Not to be used for flight planning purposes.